sensor_id;sensor_type;location;lat;lon;timestamp;P1;durP1;ratioP1;P2;durP2;ratioP2
22415;SDS011;12204;50.600;4.608;2023-05-14T00:04:24;9.52;;;4.47;;
22415;SDS011;12204;50.600;4.608;2023-05-14T00:09:31;10.73;;;4.65;;
22415;SDS011;12204;50.600;4.608;2023-05-14T00:14:36;10.37;;;4.20;;
22415;SDS011;12204;50.600;4.608;2023-05-14T00:19:41;9.23;;;4.43;;
22415;SDS011;12204;50.600;4.608;2023-05-14T00:24:49;10.13;;;4.10;;
22415;SDS011;12204;50.600;4.608;2023-05-14T00:29:54;9.23;;;4.22;;
22415;SDS011;12204;50.600;4.608;2023-05-14T00:34:59;8.23;;;4.18;;
22415;SDS011;12204;50.600;4.608;2023-05-14T00:40:08;8.23;;;4.10;;
22415;SDS011;12204;50.600;4.608;2023-05-14T00:45:14;8.65;;;4.07;;
22415;SDS011;12204;50.600;4.608;2023-05-14T00:50:20;10.02;;;4.22;;
22415;SDS011;12204;50.600;4.608;2023-05-14T00:55:26;7.72;;;4.07;;
22415;SDS011;12204;50.600;4.608;2023-05-14T01:00:33;8.55;;;3.70;;
22415;SDS011;12204;50.600;4.608;2023-05-14T01:05:41;9.32;;;4.07;;
22415;SDS011;12204;50.600;4.608;2023-05-14T01:11:02;9.75;;;3.90;;
22415;SDS011;12204;50.600;4.608;2023-05-14T01:16:12;9.05;;;4.00;;
22415;SDS011;12204;50.600;4.608;2023-05-14T01:21:32;7.63;;;4.00;;
22415;SDS011;12204;50.600;4.608;2023-05-14T01:26:41;6.68;;;3.72;;
22415;SDS011;12204;50.600;4.608;2023-05-14T01:31:46;8.38;;;3.90;;
22415;SDS011;12204;50.600;4.608;2023-05-14T01:36:55;9.13;;;3.97;;
22415;SDS011;12204;50.600;4.608;2023-05-14T01:42:01;7.15;;;3.78;;
22415;SDS011;12204;50.600;4.608;2023-05-14T01:47:07;8.50;;;4.05;;
22415;SDS011;12204;50.600;4.608;2023-05-14T01:52:13;10.18;;;4.22;;
22415;SDS011;12204;50.600;4.608;2023-05-14T01:57:22;8.98;;;3.92;;
22415;SDS011;12204;50.600;4.608;2023-05-14T02:02:27;8.30;;;3.88;;
22415;SDS011;12204;50.600;4.608;2023-05-14T02:07:33;7.90;;;4.10;;
22415;SDS011;12204;50.600;4.608;2023-05-14T02:12:38;7.18;;;3.90;;
22415;SDS011;12204;50.600;4.608;2023-05-14T02:17:43;8.90;;;4.28;;
22415;SDS011;12204;50.600;4.608;2023-05-14T02:22:51;8.32;;;4.57;;
22415;SDS011;12204;50.600;4.608;2023-05-14T02:27:57;7.40;;;4.60;;
22415;SDS011;12204;50.600;4.608;2023-05-14T02:33:02;9.65;;;4.63;;
22415;SDS011;12204;50.600;4.608;2023-05-14T02:38:08;10.63;;;4.30;;
22415;SDS011;12204;50.600;4.608;2023-05-14T02:43:13;7.18;;;4.05;;
22415;SDS011;12204;50.600;4.608;2023-05-14T02:48:18;11.48;;;4.60;;
22415;SDS011;12204;50.600;4.608;2023-05-14T02:53:24;10.45;;;5.30;;
22415;SDS011;12204;50.600;4.608;2023-05-14T02:58:29;10.80;;;4.72;;
22415;SDS011;12204;50.600;4.608;2023-05-14T03:03:37;10.57;;;4.80;;
22415;SDS011;12204;50.600;4.608;2023-05-14T03:08:45;8.00;;;4.53;;
22415;SDS011;12204;50.600;4.608;2023-05-14T03:13:50;7.83;;;4.63;;
22415;SDS011;12204;50.600;4.608;2023-05-14T03:18:55;8.38;;;4.63;;
22415;SDS011;12204;50.600;4.608;2023-05-14T03:24:01;8.80;;;4.85;;
22415;SDS011;12204;50.600;4.608;2023-05-14T03:29:07;9.30;;;4.50;;
22415;SDS011;12204;50.600;4.608;2023-05-14T03:34:12;9.15;;;4.82;;
22415;SDS011;12204;50.600;4.608;2023-05-14T03:39:19;8.20;;;4.88;;
22415;SDS011;12204;50.600;4.608;2023-05-14T03:44:23;8.65;;;5.10;;
22415;SDS011;12204;50.600;4.608;2023-05-14T03:49:29;8.80;;;4.63;;
22415;SDS011;12204;50.600;4.608;2023-05-14T03:54:39;11.68;;;5.10;;
22415;SDS011;12204;50.600;4.608;2023-05-14T03:59:44;9.15;;;4.70;;
22415;SDS011;12204;50.600;4.608;2023-05-14T04:04:50;10.30;;;4.93;;
22415;SDS011;12204;50.600;4.608;2023-05-14T04:09:56;8.05;;;4.93;;
22415;SDS011;12204;50.600;4.608;2023-05-14T04:15:05;8.30;;;4.70;;
22415;SDS011;12204;50.600;4.608;2023-05-14T04:20:12;8.80;;;5.30;;
22415;SDS011;12204;50.600;4.608;2023-05-14T04:25:19;7.68;;;4.80;;
22415;SDS011;12204;50.600;4.608;2023-05-14T04:35:29;9.65;;;4.63;;
22415;SDS011;12204;50.600;4.608;2023-05-14T04:40:36;8.13;;;5.18;;
22415;SDS011;12204;50.600;4.608;2023-05-14T04:45:40;8.68;;;4.93;;
22415;SDS011;12204;50.600;4.608;2023-05-14T04:50:46;11.18;;;5.00;;
22415;SDS011;12204;50.600;4.608;2023-05-14T04:55:52;9.20;;;4.95;;
22415;SDS011;12204;50.600;4.608;2023-05-14T05:00:57;10.68;;;4.88;;
22415;SDS011;12204;50.600;4.608;2023-05-14T05:06:03;8.60;;;5.05;;
22415;SDS011;12204;50.600;4.608;2023-05-14T05:11:11;9.57;;;4.97;;
22415;SDS011;12204;50.600;4.608;2023-05-14T05:16:16;9.90;;;5.03;;
22415;SDS011;12204;50.600;4.608;2023-05-14T05:21:21;10.18;;;5.32;;
22415;SDS011;12204;50.600;4.608;2023-05-14T05:26:27;8.85;;;5.07;;
22415;SDS011;12204;50.600;4.608;2023-05-14T05:31:32;12.05;;;5.68;;
22415;SDS011;12204;50.600;4.608;2023-05-14T05:36:37;10.75;;;5.35;;
22415;SDS011;12204;50.600;4.608;2023-05-14T05:41:44;14.18;;;8.43;;
22415;SDS011;12204;50.600;4.608;2023-05-14T05:46:49;15.38;;;9.85;;
22415;SDS011;12204;50.600;4.608;2023-05-14T05:51:54;18.95;;;12.23;;
22415;SDS011;12204;50.600;4.608;2023-05-14T05:57:00;18.13;;;12.20;;
22415;SDS011;12204;50.600;4.608;2023-05-14T06:02:05;21.73;;;12.35;;
22415;SDS011;12204;50.600;4.608;2023-05-14T06:07:10;17.17;;;11.65;;
22415;SDS011;12204;50.600;4.608;2023-05-14T06:12:17;20.00;;;11.15;;
22415;SDS011;12204;50.600;4.608;2023-05-14T06:17:24;18.10;;;9.95;;
22415;SDS011;12204;50.600;4.608;2023-05-14T06:22:29;17.48;;;10.70;;
22415;SDS011;12204;50.600;4.608;2023-05-14T06:27:36;16.63;;;10.15;;
22415;SDS011;12204;50.600;4.608;2023-05-14T06:32:41;14.93;;;9.68;;
22415;SDS011;12204;50.600;4.608;2023-05-14T06:37:50;12.60;;;9.35;;
22415;SDS011;12204;50.600;4.608;2023-05-14T06:42:58;21.98;;;13.07;;
22415;SDS011;12204;50.600;4.608;2023-05-14T06:48:03;27.85;;;16.42;;
22415;SDS011;12204;50.600;4.608;2023-05-14T06:53:11;26.17;;;16.48;;
22415;SDS011;12204;50.600;4.608;2023-05-14T06:58:17;27.25;;;16.83;;
22415;SDS011;12204;50.600;4.608;2023-05-14T07:03:23;29.40;;;17.50;;
22415;SDS011;12204;50.600;4.608;2023-05-14T07:08:30;26.77;;;17.70;;
22415;SDS011;12204;50.600;4.608;2023-05-14T07:13:36;36.67;;;20.10;;
22415;SDS011;12204;50.600;4.608;2023-05-14T07:18:44;48.20;;;19.83;;
22415;SDS011;12204;50.600;4.608;2023-05-14T07:23:49;44.00;;;19.15;;
22415;SDS011;12204;50.600;4.608;2023-05-14T07:29:08;41.90;;;19.90;;
22415;SDS011;12204;50.600;4.608;2023-05-14T07:34:13;37.90;;;19.30;;
22415;SDS011;12204;50.600;4.608;2023-05-14T07:39:18;37.03;;;18.50;;
22415;SDS011;12204;50.600;4.608;2023-05-14T07:44:27;38.17;;;19.88;;
22415;SDS011;12204;50.600;4.608;2023-05-14T07:49:33;33.65;;;19.73;;
22415;SDS011;12204;50.600;4.608;2023-05-14T07:54:38;39.85;;;20.27;;
22415;SDS011;12204;50.600;4.608;2023-05-14T07:59:44;39.63;;;21.00;;
22415;SDS011;12204;50.600;4.608;2023-05-14T08:04:50;37.28;;;21.00;;
22415;SDS011;12204;50.600;4.608;2023-05-14T08:09:56;33.10;;;20.00;;
22415;SDS011;12204;50.600;4.608;2023-05-14T08:15:03;33.65;;;20.35;;
22415;SDS011;12204;50.600;4.608;2023-05-14T08:20:10;34.85;;;20.20;;
22415;SDS011;12204;50.600;4.608;2023-05-14T08:25:16;32.22;;;19.33;;
22415;SDS011;12204;50.600;4.608;2023-05-14T08:30:23;32.70;;;20.45;;
22415;SDS011;12204;50.600;4.608;2023-05-14T08:35:28;31.00;;;20.40;;
22415;SDS011;12204;50.600;4.608;2023-05-14T08:40:33;29.45;;;19.33;;
22415;SDS011;12204;50.600;4.608;2023-05-14T08:45:40;32.22;;;19.33;;
22415;SDS011;12204;50.600;4.608;2023-05-14T08:50:46;30.52;;;19.02;;
22415;SDS011;12204;50.600;4.608;2023-05-14T08:55:52;29.70;;;19.65;;
22415;SDS011;12204;50.600;4.608;2023-05-14T09:00:58;28.08;;;18.30;;
22415;SDS011;12204;50.600;4.608;2023-05-14T09:06:04;34.80;;;19.58;;
22415;SDS011;12204;50.600;4.608;2023-05-14T09:11:10;31.17;;;19.90;;
22415;SDS011;12204;50.600;4.608;2023-05-14T09:16:17;32.72;;;19.10;;
22415;SDS011;12204;50.600;4.608;2023-05-14T09:21:24;30.15;;;18.80;;
22415;SDS011;12204;50.600;4.608;2023-05-14T09:26:34;31.67;;;19.48;;
22415;SDS011;12204;50.600;4.608;2023-05-14T09:31:40;32.00;;;19.90;;
22415;SDS011;12204;50.600;4.608;2023-05-14T09:36:46;28.60;;;19.50;;
22415;SDS011;12204;50.600;4.608;2023-05-14T09:41:51;30.70;;;20.20;;
22415;SDS011;12204;50.600;4.608;2023-05-14T09:47:04;33.08;;;19.95;;
22415;SDS011;12204;50.600;4.608;2023-05-14T09:52:35;30.80;;;20.52;;
22415;SDS011;12204;50.600;4.608;2023-05-14T09:57:42;30.95;;;19.60;;
22415;SDS011;12204;50.600;4.608;2023-05-14T10:02:48;30.73;;;20.02;;
22415;SDS011;12204;50.600;4.608;2023-05-14T10:07:55;31.10;;;20.77;;
22415;SDS011;12204;50.600;4.608;2023-05-14T10:13:03;32.75;;;20.77;;
22415;SDS011;12204;50.600;4.608;2023-05-14T10:18:22;33.30;;;20.60;;
22415;SDS011;12204;50.600;4.608;2023-05-14T10:23:28;32.42;;;21.50;;
22415;SDS011;12204;50.600;4.608;2023-05-14T10:28:33;32.10;;;20.35;;
22415;SDS011;12204;50.600;4.608;2023-05-14T10:33:47;28.75;;;20.00;;
22415;SDS011;12204;50.600;4.608;2023-05-14T10:39:09;29.45;;;20.58;;
22415;SDS011;12204;50.600;4.608;2023-05-14T10:44:14;31.73;;;20.50;;
22415;SDS011;12204;50.600;4.608;2023-05-14T10:49:22;30.58;;;19.90;;
22415;SDS011;12204;50.600;4.608;2023-05-14T10:54:50;26.80;;;19.08;;
22415;SDS011;12204;50.600;4.608;2023-05-14T10:59:58;28.15;;;20.00;;
22415;SDS011;12204;50.600;4.608;2023-05-14T11:05:08;27.00;;;18.25;;
22415;SDS011;12204;50.600;4.608;2023-05-14T11:10:19;27.77;;;17.80;;
22415;SDS011;12204;50.600;4.608;2023-05-14T11:15:27;30.40;;;18.42;;
22415;SDS011;12204;50.600;4.608;2023-05-14T11:20:33;26.80;;;17.02;;
22415;SDS011;12204;50.600;4.608;2023-05-14T11:25:39;23.20;;;16.38;;
22415;SDS011;12204;50.600;4.608;2023-05-14T11:30:44;27.67;;;17.17;;
22415;SDS011;12204;50.600;4.608;2023-05-14T11:35:50;22.10;;;15.90;;
22415;SDS011;12204;50.600;4.608;2023-05-14T11:46:02;19.98;;;14.27;;
22415;SDS011;12204;50.600;4.608;2023-05-14T11:51:09;24.30;;;15.35;;
22415;SDS011;12204;50.600;4.608;2023-05-14T11:56:14;21.95;;;14.27;;
22415;SDS011;12204;50.600;4.608;2023-05-14T12:01:19;20.58;;;14.80;;
22415;SDS011;12204;50.600;4.608;2023-05-14T12:06:30;21.98;;;14.30;;
22415;SDS011;12204;50.600;4.608;2023-05-14T12:11:35;19.95;;;13.88;;
22415;SDS011;12204;50.600;4.608;2023-05-14T12:16:42;19.83;;;13.57;;
22415;SDS011;12204;50.600;4.608;2023-05-14T12:21:50;20.92;;;13.70;;
22415;SDS011;12204;50.600;4.608;2023-05-14T12:26:55;20.73;;;13.40;;
22415;SDS011;12204;50.600;4.608;2023-05-14T12:32:06;18.77;;;13.65;;
22415;SDS011;12204;50.600;4.608;2023-05-14T12:37:15;18.10;;;13.15;;
22415;SDS011;12204;50.600;4.608;2023-05-14T12:42:21;20.55;;;13.10;;
22415;SDS011;12204;50.600;4.608;2023-05-14T12:47:26;16.92;;;13.00;;
22415;SDS011;12204;50.600;4.608;2023-05-14T12:52:32;18.25;;;12.88;;
22415;SDS011;12204;50.600;4.608;2023-05-14T12:57:40;19.33;;;13.25;;
22415;SDS011;12204;50.600;4.608;2023-05-14T13:02:45;17.90;;;12.35;;
22415;SDS011;12204;50.600;4.608;2023-05-14T13:07:52;17.27;;;12.52;;
22415;SDS011;12204;50.600;4.608;2023-05-14T13:12:57;18.10;;;12.50;;
22415;SDS011;12204;50.600;4.608;2023-05-14T13:18:03;18.75;;;12.32;;
22415;SDS011;12204;50.600;4.608;2023-05-14T13:23:11;17.73;;;12.77;;
22415;SDS011;12204;50.600;4.608;2023-05-14T13:28:16;15.85;;;12.00;;
22415;SDS011;12204;50.600;4.608;2023-05-14T13:33:22;20.08;;;12.10;;
22415;SDS011;12204;50.600;4.608;2023-05-14T13:38:29;17.02;;;11.98;;
22415;SDS011;12204;50.600;4.608;2023-05-14T13:43:35;15.93;;;11.48;;
22415;SDS011;12204;50.600;4.608;2023-05-14T13:48:40;15.85;;;10.80;;
22415;SDS011;12204;50.600;4.608;2023-05-14T13:53:46;19.17;;;11.60;;
22415;SDS011;12204;50.600;4.608;2023-05-14T13:58:52;15.38;;;10.95;;
22415;SDS011;12204;50.600;4.608;2023-05-14T14:03:57;15.95;;;10.90;;
22415;SDS011;12204;50.600;4.608;2023-05-14T14:09:06;15.38;;;10.95;;
22415;SDS011;12204;50.600;4.608;2023-05-14T14:14:11;13.88;;;10.27;;
22415;SDS011;12204;50.600;4.608;2023-05-14T14:19:16;16.35;;;10.30;;
22415;SDS011;12204;50.600;4.608;2023-05-14T14:24:23;18.40;;;11.30;;
22415;SDS011;12204;50.600;4.608;2023-05-14T14:29:28;19.25;;;10.57;;
22415;SDS011;12204;50.600;4.608;2023-05-14T14:34:33;14.63;;;9.75;;
22415;SDS011;12204;50.600;4.608;2023-05-14T14:39:40;15.57;;;10.60;;
22415;SDS011;12204;50.600;4.608;2023-05-14T14:44:45;14.63;;;10.37;;
22415;SDS011;12204;50.600;4.608;2023-05-14T14:49:50;14.75;;;10.05;;
22415;SDS011;12204;50.600;4.608;2023-05-14T14:54:57;13.40;;;9.52;;
22415;SDS011;12204;50.600;4.608;2023-05-14T15:00:03;14.03;;;9.23;;
22415;SDS011;12204;50.600;4.608;2023-05-14T15:05:11;12.07;;;9.35;;
22415;SDS011;12204;50.600;4.608;2023-05-14T15:10:19;13.60;;;8.38;;
22415;SDS011;12204;50.600;4.608;2023-05-14T15:15:24;13.00;;;8.32;;
22415;SDS011;12204;50.600;4.608;2023-05-14T15:20:29;12.57;;;8.15;;
22415;SDS011;12204;50.600;4.608;2023-05-14T15:25:36;14.30;;;8.77;;
22415;SDS011;12204;50.600;4.608;2023-05-14T15:30:45;12.27;;;8.18;;
22415;SDS011;12204;50.600;4.608;2023-05-14T15:35:51;12.48;;;8.68;;
22415;SDS011;12204;50.600;4.608;2023-05-14T15:40:57;13.23;;;8.70;;
22415;SDS011;12204;50.600;4.608;2023-05-14T15:46:03;15.88;;;9.35;;
22415;SDS011;12204;50.600;4.608;2023-05-14T15:51:08;13.95;;;8.82;;
22415;SDS011;12204;50.600;4.608;2023-05-14T15:56:15;13.68;;;8.80;;
22415;SDS011;12204;50.600;4.608;2023-05-14T16:01:20;14.43;;;8.85;;
22415;SDS011;12204;50.600;4.608;2023-05-14T16:06:25;15.38;;;9.10;;
22415;SDS011;12204;50.600;4.608;2023-05-14T16:11:32;16.23;;;8.70;;
22415;SDS011;12204;50.600;4.608;2023-05-14T16:16:37;13.77;;;8.67;;
22415;SDS011;12204;50.600;4.608;2023-05-14T16:21:42;13.35;;;8.80;;
22415;SDS011;12204;50.600;4.608;2023-05-14T16:26:49;15.35;;;7.60;;
22415;SDS011;12204;50.600;4.608;2023-05-14T16:31:57;12.52;;;7.25;;
22415;SDS011;12204;50.600;4.608;2023-05-14T16:37:02;12.18;;;7.50;;
22415;SDS011;12204;50.600;4.608;2023-05-14T16:42:09;16.65;;;6.75;;
22415;SDS011;12204;50.600;4.608;2023-05-14T16:47:14;15.13;;;6.97;;
22415;SDS011;12204;50.600;4.608;2023-05-14T16:52:19;32.75;;;7.00;;
22415;SDS011;12204;50.600;4.608;2023-05-14T16:57:26;14.18;;;6.30;;
22415;SDS011;12204;50.600;4.608;2023-05-14T17:02:31;14.43;;;5.70;;
22415;SDS011;12204;50.600;4.608;2023-05-14T17:07:37;11.40;;;5.90;;
22415;SDS011;12204;50.600;4.608;2023-05-14T17:12:43;14.32;;;5.90;;
22415;SDS011;12204;50.600;4.608;2023-05-14T17:17:48;14.75;;;5.90;;
22415;SDS011;12204;50.600;4.608;2023-05-14T17:22:54;10.93;;;5.35;;
22415;SDS011;12204;50.600;4.608;2023-05-14T17:28:02;12.93;;;5.75;;
22415;SDS011;12204;50.600;4.608;2023-05-14T17:33:07;15.60;;;5.72;;
22415;SDS011;12204;50.600;4.608;2023-05-14T17:38:12;15.13;;;5.60;;
22415;SDS011;12204;50.600;4.608;2023-05-14T17:43:25;13.57;;;5.53;;
22415;SDS011;12204;50.600;4.608;2023-05-14T17:48:34;12.70;;;5.53;;
22415;SDS011;12204;50.600;4.608;2023-05-14T17:54:52;11.40;;;5.22;;
22415;SDS011;12204;50.600;4.608;2023-05-14T18:13:25;13.07;;;5.15;;
22415;SDS011;12204;50.600;4.608;2023-05-14T18:54:26;10.25;;;4.20;;
22415;SDS011;12204;50.600;4.608;2023-05-14T18:59:31;11.48;;;4.28;;
22415;SDS011;12204;50.600;4.608;2023-05-14T19:05:04;7.43;;;4.30;;
22415;SDS011;12204;50.600;4.608;2023-05-14T19:16:15;8.73;;;4.05;;
22415;SDS011;12204;50.600;4.608;2023-05-14T19:21:20;9.50;;;3.97;;
22415;SDS011;12204;50.600;4.608;2023-05-14T19:26:41;8.55;;;4.18;;
22415;SDS011;12204;50.600;4.608;2023-05-14T19:32:14;9.77;;;3.92;;
22415;SDS011;12204;50.600;4.608;2023-05-14T19:37:33;9.70;;;4.20;;
22415;SDS011;12204;50.600;4.608;2023-05-14T19:48:44;9.23;;;3.70;;
22415;SDS011;12204;50.600;4.608;2023-05-14T19:54:04;9.48;;;3.90;;
22415;SDS011;12204;50.600;4.608;2023-05-14T20:05:15;8.05;;;3.67;;
22415;SDS011;12204;50.600;4.608;2023-05-14T20:10:34;7.80;;;3.80;;
22415;SDS011;12204;50.600;4.608;2023-05-14T20:21:44;7.90;;;3.72;;
22415;SDS011;12204;50.600;4.608;2023-05-14T20:27:03;7.18;;;3.55;;
22415;SDS011;12204;50.600;4.608;2023-05-14T20:57:21;6.88;;;3.25;;
22415;SDS011;12204;50.600;4.608;2023-05-14T21:02:54;5.97;;;3.50;;
22415;SDS011;12204;50.600;4.608;2023-05-14T21:14:18;6.05;;;3.38;;
22415;SDS011;12204;50.600;4.608;2023-05-14T21:19:38;6.47;;;3.25;;
22415;SDS011;12204;50.600;4.608;2023-05-14T21:31:45;7.25;;;3.40;;
22415;SDS011;12204;50.600;4.608;2023-05-14T21:37:18;7.97;;;3.17;;
22415;SDS011;12204;50.600;4.608;2023-05-14T21:42:37;6.75;;;3.30;;
22415;SDS011;12204;50.600;4.608;2023-05-14T21:54:27;11.25;;;3.88;;
22415;SDS011;12204;50.600;4.608;2023-05-14T22:00:00;12.30;;;3.95;;
22415;SDS011;12204;50.600;4.608;2023-05-14T22:10:55;10.07;;;3.88;;
22415;SDS011;12204;50.600;4.608;2023-05-14T22:16:00;12.20;;;4.45;;
22415;SDS011;12204;50.600;4.608;2023-05-14T22:21:15;9.85;;;4.20;;
22415;SDS011;12204;50.600;4.608;2023-05-14T22:26:20;10.18;;;4.18;;
22415;SDS011;12204;50.600;4.608;2023-05-14T22:31:25;12.68;;;4.80;;
22415;SDS011;12204;50.600;4.608;2023-05-14T22:36:33;9.48;;;4.30;;
22415;SDS011;12204;50.600;4.608;2023-05-14T22:41:38;10.88;;;4.55;;
22415;SDS011;12204;50.600;4.608;2023-05-14T22:46:43;11.63;;;4.47;;
22415;SDS011;12204;50.600;4.608;2023-05-14T22:51:50;11.48;;;4.50;;
22415;SDS011;12204;50.600;4.608;2023-05-14T22:56:55;10.00;;;4.45;;
22415;SDS011;12204;50.600;4.608;2023-05-14T23:02:00;10.25;;;4.03;;
22415;SDS011;12204;50.600;4.608;2023-05-14T23:07:08;9.65;;;4.38;;
22415;SDS011;12204;50.600;4.608;2023-05-14T23:12:14;10.68;;;4.28;;
22415;SDS011;12204;50.600;4.608;2023-05-14T23:17:19;9.32;;;4.50;;
22415;SDS011;12204;50.600;4.608;2023-05-14T23:22:26;8.35;;;4.30;;
22415;SDS011;12204;50.600;4.608;2023-05-14T23:27:31;13.20;;;4.22;;
22415;SDS011;12204;50.600;4.608;2023-05-14T23:32:36;10.48;;;4.28;;
22415;SDS011;12204;50.600;4.608;2023-05-14T23:37:42;9.52;;;4.05;;
22415;SDS011;12204;50.600;4.608;2023-05-14T23:42:48;8.97;;;3.93;;
22415;SDS011;12204;50.600;4.608;2023-05-14T23:47:53;8.55;;;4.20;;
22415;SDS011;12204;50.600;4.608;2023-05-14T23:53:02;9.02;;;4.15;;
22415;SDS011;12204;50.600;4.608;2023-05-14T23:58:06;9.68;;;4.05;;
